Time;durP1;ratioP1;P1;durP2;ratioP2;P2;SDS_P1;SDS_P2;PMS_P1;PMS_P2;Temp;Humidity;BMP_temperature;BMP_pressure;BME280_temperature;BME280_humidity;BME280_pressure;Samples;Min_cycle;Max_cycle;Signal;HPM_P1;HPM_P2
2024/02/28 00:00:35;;;;;;;15.05;10.43;;;;;;;3.80;99.66;101236.44;6257097;22;20018;-85
2024/02/28 00:03:03;;;;;;;16.15;10.40;;;;;;;3.73;99.91;101239.69;6262211;22;20015;-84
2024/02/28 00:05:33;;;;;;;16.08;12.27;;;;;;;3.69;100.00;101241.34;6263047;22;20110;-85
2024/02/28 00:08:08;;;;;;;15.75;10.68;;;;;;;3.68;100.00;101242.16;6262372;22;20042;-85
2024/02/28 00:10:35;;;;;;;20.40;10.43;;;;;;;3.67;100.00;101249.88;6263814;22;20023;-85
2024/02/28 00:13:05;;;;;;;22.15;12.43;;;;;;;3.68;100.00;101249.03;6267374;22;20019;-85
2024/02/28 00:15:34;;;;;;;20.63;11.27;;;;;;;3.72;100.00;101253.50;6255674;22;20019;-84
2024/02/28 00:18:13;;;;;;;17.88;11.60;;;;;;;3.76;100.00;101252.75;6268008;22;20117;-85
2024/02/28 00:20:49;;;;;;;16.67;11.00;;;;;;;3.76;100.00;101248.44;6274498;22;20023;-85
2024/02/28 00:23:19;;;;;;;16.65;10.85;;;;;;;3.72;100.00;101251.75;6275652;22;20019;-86
2024/02/28 00:25:48;;;;;;;17.90;11.07;;;;;;;3.74;100.00;101249.22;6254046;22;20396;-85
2024/02/28 00:28:15;;;;;;;18.85;11.15;;;;;;;3.74;100.00;101244.94;6254977;22;20050;-85
2024/02/28 00:30:42;;;;;;;21.20;12.68;;;;;;;3.72;100.00;101240.53;6280794;22;20011;-85
2024/02/28 00:33:08;;;;;;;14.80;9.35;;;;;;;3.67;100.00;101234.34;6279536;22;20058;-83
2024/02/28 00:35:36;;;;;;;15.38;10.38;;;;;;;3.63;100.00;101244.59;6255789;22;20046;-84
2024/02/28 00:38:12;;;;;;;20.30;10.88;;;;;;;3.58;100.00;101235.81;6255311;22;20026;-84
2024/02/28 00:40:39;;;;;;;17.08;11.15;;;;;;;3.53;100.00;101236.53;6254235;22;20407;-86
2024/02/28 00:43:06;;;;;;;22.95;12.20;;;;;;;3.46;100.00;101238.94;6281278;22;20078;-84
2024/02/28 00:45:45;;;;;;;20.88;12.05;;;;;;;3.42;100.00;101242.28;6297303;22;20042;-87
2024/02/28 00:48:15;;;;;;;16.83;10.45;;;;;;;3.42;100.00;101250.03;6267973;22;20015;-85
2024/02/28 00:50:42;;;;;;;17.70;11.80;;;;;;;3.41;100.00;101244.81;6269212;22;20441;-84
2024/02/28 00:53:09;;;;;;;17.20;10.32;;;;;;;3.38;100.00;101247.31;6269846;22;20054;-84
2024/02/28 00:55:45;;;;;;;19.17;12.75;;;;;;;3.32;100.00;101242.81;6270919;22;20011;-86
2024/02/28 00:58:12;;;;;;;20.38;12.68;;;;;;;3.33;100.00;101248.91;6269219;22;20042;-84
2024/02/28 01:00:38;;;;;;;18.25;12.85;;;;;;;3.29;100.00;101247.91;6255393;22;20065;-85
2024/02/28 01:03:08;;;;;;;18.92;12.52;;;;;;;3.29;100.00;101258.28;6252445;22;20317;-85
2024/02/28 01:05:36;;;;;;;20.10;12.00;;;;;;;3.23;100.00;101253.75;6253975;22;20027;-84
2024/02/28 01:08:02;;;;;;;21.98;13.65;;;;;;;3.21;100.00;101249.41;6254215;22;20087;-85
2024/02/28 01:10:29;;;;;;;23.27;13.80;;;;;;;3.23;100.00;101252.91;6252871;22;20015;-85
2024/02/28 01:12:56;;;;;;;20.55;12.27;;;;;;;3.23;100.00;101252.91;6253814;22;20022;-84
2024/02/28 01:15:22;;;;;;;21.85;14.75;;;;;;;3.21;100.00;101252.84;6255065;22;20031;-85
2024/02/28 01:17:48;;;;;;;20.65;13.18;;;;;;;3.18;100.00;101251.88;6280336;22;20076;-87
2024/02/28 01:20:15;;;;;;;24.83;13.40;;;;;;;3.14;100.00;101253.47;6255707;22;20016;-85
2024/02/28 01:22:42;;;;;;;23.20;13.95;;;;;;;3.06;100.00;101258.41;6281239;22;20042;-85
2024/02/28 01:25:11;;;;;;;19.38;13.20;;;;;;;3.02;100.00;101253.97;6255127;22;20047;-85
2024/02/28 01:27:41;;;;;;;22.73;14.07;;;;;;;2.98;100.00;101252.13;6280640;22;20122;-86
2024/02/28 01:30:08;;;;;;;26.98;14.35;;;;;;;2.91;100.00;101247.59;6254795;22;20505;-84
2024/02/28 01:32:35;;;;;;;20.38;12.32;;;;;;;2.83;100.00;101256.81;6255093;22;20027;-85
2024/02/28 01:35:04;;;;;;;20.98;13.98;;;;;;;2.75;100.00;101249.69;6255083;22;20026;-85
2024/02/28 01:37:34;;;;;;;24.20;13.48;;;;;;;2.72;100.00;101244.41;6282033;22;20030;-84
2024/02/28 01:40:01;;;;;;;23.05;13.45;;;;;;;2.65;100.00;101243.31;6278567;22;20064;-86
2024/02/28 01:42:27;;;;;;;20.73;13.45;;;;;;;2.61;100.00;101248.38;6280602;22;20023;-84
2024/02/28 01:44:55;;;;;;;24.35;13.85;;;;;;;2.54;100.00;101242.09;6254295;22;20023;-85
2024/02/28 01:47:22;;;;;;;21.40;13.60;;;;;;;2.50;100.00;101245.41;6254844;22;20049;-85
2024/02/28 01:49:54;;;;;;;22.50;12.93;;;;;;;2.44;100.00;101248.66;6280945;22;20030;-86
2024/02/28 01:52:21;;;;;;;23.02;14.25;;;;;;;2.44;100.00;101245.22;6256222;22;20020;-85
2024/02/28 01:54:54;;;;;;;21.80;14.15;;;;;;;2.43;100.00;101243.44;6254335;22;20023;-85
2024/02/28 01:57:21;;;;;;;24.17;13.77;;;;;;;2.39;100.00;101245.06;6254729;22;20019;-86
2024/02/28 01:59:51;;;;;;;20.80;14.23;;;;;;;2.36;100.00;101239.78;6253810;22;20093;-86
2024/02/28 02:02:18;;;;;;;23.00;13.50;;;;;;;2.35;100.00;101237.13;6254685;22;20122;-86
2024/02/28 02:04:45;;;;;;;22.08;12.88;;;;;;;2.27;100.00;101231.72;6255253;22;20074;-84
2024/02/28 02:07:12;;;;;;;20.40;13.15;;;;;;;2.26;100.00;101228.25;6278794;22;20039;-84
2024/02/28 02:09:38;;;;;;;21.10;12.23;;;;;;;2.22;100.00;101234.13;6256588;22;20403;-85
2024/02/28 02:12:05;;;;;;;22.38;12.30;;;;;;;2.20;100.00;101233.19;6254070;22;20511;-87
2024/02/28 02:14:36;;;;;;;22.48;13.82;;;;;;;2.15;100.00;101230.47;6255580;22;20019;-85
2024/02/28 02:17:02;;;;;;;25.70;14.70;;;;;;;2.15;100.00;101233.06;6253808;22;20019;-84
2024/02/28 02:19:29;;;;;;;22.98;12.98;;;;;;;2.15;100.00;101232.16;6254146;22;20023;-86
2024/02/28 02:22:00;;;;;;;24.20;12.95;;;;;;;2.16;100.00;101231.34;6253031;22;20023;-85
2024/02/28 02:24:25;;;;;;;23.45;14.50;;;;;;;2.17;100.00;101240.84;6254042;22;20019;-85
2024/02/28 02:27:04;;;;;;;26.35;13.70;;;;;;;2.14;100.00;101245.91;6277606;22;20094;-86
2024/02/28 02:29:34;;;;;;;20.52;13.38;;;;;;;2.08;100.00;101237.94;6254601;22;20019;-84
2024/02/28 02:32:00;;;;;;;20.63;13.98;;;;;;;2.03;100.00;101224.84;6256109;22;20019;-86
2024/02/28 02:34:27;;;;;;;19.27;13.18;;;;;;;2.00;100.00;101240.25;6279574;22;20073;-84
2024/02/28 02:36:56;;;;;;;21.25;14.02;;;;;;;1.96;100.00;101238.41;6278603;22;20515;-85
2024/02/28 02:39:22;;;;;;;22.10;14.40;;;;;;;1.88;100.00;101224.31;6254354;22;20027;-85
2024/02/28 02:41:54;;;;;;;21.85;14.38;;;;;;;1.77;100.00;101217.09;6255299;22;20088;-85
2024/02/28 02:44:20;;;;;;;24.05;15.23;;;;;;;1.74;100.00;101234.16;6253581;22;20603;-84
2024/02/28 02:46:48;;;;;;;27.95;15.93;;;;;;;1.68;100.00;101229.63;6252807;22;20114;-86
2024/02/28 02:49:22;;;;;;;25.95;14.48;;;;;;;1.64;100.00;101238.09;6256018;22;20410;-84
2024/02/28 02:51:50;;;;;;;24.77;15.40;;;;;;;1.65;100.00;101240.72;6253678;22;20102;-86
2024/02/28 02:54:19;;;;;;;24.42;16.25;;;;;;;1.59;100.00;101226.72;6254656;22;20568;-84
2024/02/28 02:56:46;;;;;;;26.83;16.67;;;;;;;1.54;100.00;101230.84;6253345;22;20026;-85
2024/02/28 02:59:16;;;;;;;27.85;15.80;;;;;;;1.53;100.00;101229.09;6251613;22;20046;-84
2024/02/28 03:01:45;;;;;;;27.33;15.68;;;;;;;1.51;100.00;101234.16;6253506;22;20021;-83
2024/02/28 03:04:14;;;;;;;25.65;15.88;;;;;;;1.47;100.00;101235.78;6253134;22;20020;-86
2024/02/28 03:06:44;;;;;;;26.13;16.25;;;;;;;1.41;100.00;101226.91;6253808;22;20091;-85
2024/02/28 03:09:14;;;;;;;26.67;16.27;;;;;;;1.39;100.00;101232.00;6254851;22;20019;-85
2024/02/28 03:11:45;;;;;;;24.90;14.82;;;;;;;1.36;100.00;101241.38;6280867;22;20043;-85
2024/02/28 03:14:14;;;;;;;26.88;15.13;;;;;;;1.35;100.00;101242.19;6255220;22;20046;-85
2024/02/28 03:16:44;;;;;;;26.60;15.88;;;;;;;1.33;100.00;101247.28;6279965;22;20023;-86
2024/02/28 03:19:15;;;;;;;30.63;15.90;;;;;;;1.28;100.00;101248.81;6253433;22;20047;-85
2024/02/28 03:21:47;;;;;;;27.95;15.40;;;;;;;1.27;100.00;101254.78;6279469;22;20019;-85
2024/02/28 03:24:17;;;;;;;30.15;16.00;;;;;;;1.32;100.00;101251.53;6254356;22;20039;-85
2024/02/28 03:26:44;;;;;;;27.85;15.95;;;;;;;1.31;100.00;101254.94;6252642;22;20088;-86
2024/02/28 03:29:13;;;;;;;28.05;16.17;;;;;;;1.28;100.00;101261.69;6279193;22;20066;-85
2024/02/28 03:31:40;;;;;;;25.30;15.15;;;;;;;1.24;100.00;101252.97;6282484;22;20012;-86
2024/02/28 03:34:07;;;;;;;25.40;15.43;;;;;;;1.25;100.00;101259.88;6255718;22;20016;-85
2024/02/28 03:36:36;;;;;;;26.63;15.95;;;;;;;1.27;100.00;101254.78;6254862;22;20106;-86
2024/02/28 03:39:04;;;;;;;32.75;17.58;;;;;;;1.26;100.00;101265.91;6256229;22;20072;-85
2024/02/28 03:41:33;;;;;;;27.27;16.42;;;;;;;1.24;100.00;101264.94;6230162;22;20057;-84
2024/02/28 03:44:00;;;;;;;27.05;15.35;;;;;;;1.23;100.00;101266.66;6253522;22;20023;-86
2024/02/28 03:46:30;;;;;;;31.00;16.10;;;;;;;1.24;100.00;101278.75;6253199;22;20092;-86
2024/02/28 03:48:57;;;;;;;31.02;16.48;;;;;;;1.21;100.00;101272.59;6254223;22;20019;-84
2024/02/28 03:51:24;;;;;;;32.10;16.08;;;;;;;1.19;100.00;101269.06;6254239;22;20011;-86
2024/02/28 03:53:56;;;;;;;26.33;14.27;;;;;;;1.17;100.00;101274.16;6287004;22;20027;-84
2024/02/28 03:56:37;;;;;;;28.57;15.77;;;;;;;1.13;100.00;101273.19;6269698;22;20011;-86
2024/02/28 03:59:06;;;;;;;26.60;15.70;;;;;;;1.13;100.00;101268.03;6270122;22;19999;-87
2024/02/28 04:01:36;;;;;;;22.02;13.68;;;;;;;1.13;100.00;101272.28;6269880;22;20007;-86
2024/02/28 04:04:03;;;;;;;24.92;13.88;;;;;;;1.13;100.00;101282.59;6261516;22;20019;-86
2024/02/28 04:06:31;;;;;;;27.02;14.85;;;;;;;1.09;100.00;101293.63;6280299;22;20083;-84
2024/02/28 04:08:57;;;;;;;26.67;16.30;;;;;;;1.07;100.00;101283.25;6280695;22;20015;-85
2024/02/28 04:11:24;;;;;;;22.30;13.85;;;;;;;1.06;100.00;101288.34;6254566;22;20042;-85
2024/02/28 04:13:51;;;;;;;28.80;16.70;;;;;;;1.06;100.00;101291.78;6282529;22;20019;-84
2024/02/28 04:16:20;;;;;;;27.63;15.80;;;;;;;1.05;100.00;101291.72;6256621;22;20078;-86
2024/02/28 04:18:50;;;;;;;24.88;14.13;;;;;;;1.04;100.00;101289.97;6264700;22;20437;-85
2024/02/28 04:21:22;;;;;;;24.25;16.15;;;;;;;1.01;100.00;101289.84;6269256;22;20022;-85
2024/02/28 04:23:59;;;;;;;26.90;14.90;;;;;;;0.99;100.00;101289.75;6247321;22;20019;-84
2024/02/28 04:26:25;;;;;;;24.98;15.15;;;;;;;0.94;100.00;101287.03;6283739;22;20037;-85
2024/02/28 04:28:52;;;;;;;26.55;15.82;;;;;;;0.92;100.00;101285.19;6282359;22;20022;-86
2024/02/28 04:31:19;;;;;;;23.08;14.32;;;;;;;0.85;100.00;101284.06;6255611;22;20023;-85
2024/02/28 04:33:46;;;;;;;27.83;14.55;;;;;;;0.82;100.00;101286.50;6282123;22;20046;-84
2024/02/28 04:36:15;;;;;;;28.25;16.92;;;;;;;0.78;100.00;101292.34;6280391;22;20026;-85
2024/02/28 04:38:45;;;;;;;26.27;14.63;;;;;;;0.75;100.00;101294.81;6252757;22;20019;-85
2024/02/28 04:41:13;;;;;;;26.77;15.57;;;;;;;0.68;100.00;101298.84;6280907;22;20015;-85
2024/02/28 04:43:44;;;;;;;28.67;15.23;;;;;;;0.59;100.00;101307.06;6263322;22;20015;-85
2024/02/28 04:46:12;;;;;;;28.55;16.75;;;;;;;0.60;100.00;101302.78;6261591;22;20011;-85
2024/02/28 04:48:39;;;;;;;26.10;14.80;;;;;;;0.56;100.00;101312.09;6260883;22;20338;-86
2024/02/28 04:51:10;;;;;;;27.45;16.50;;;;;;;0.54;100.00;101308.56;6263152;22;20042;-85
2024/02/28 04:53:40;;;;;;;30.05;16.50;;;;;;;0.48;100.00;101319.50;6260971;22;20027;-84
2024/02/28 04:56:11;;;;;;;26.55;15.55;;;;;;;0.49;100.00;101322.94;6236510;22;20330;-85
2024/02/28 04:58:48;;;;;;;25.83;15.45;;;;;;;0.50;100.00;101316.97;6261910;22;20058;-84
2024/02/28 05:01:15;;;;;;;27.38;16.35;;;;;;;0.48;100.00;101322.06;6237978;22;20444;-84
2024/02/28 05:03:45;;;;;;;30.67;16.83;;;;;;;0.50;100.00;101329.84;6290778;22;20027;-85
2024/02/28 05:06:23;;;;;;;25.23;15.52;;;;;;;0.49;100.00;101335.81;6264338;22;20041;-85
2024/02/28 05:08:50;;;;;;;25.20;14.93;;;;;;;0.50;100.00;101337.59;6263046;22;20086;-86
2024/02/28 05:11:17;;;;;;;22.08;15.32;;;;;;;0.51;100.00;101339.34;6262890;22;20019;-86
2024/02/28 05:13:45;;;;;;;28.73;15.45;;;;;;;0.51;100.00;101341.03;6289225;22;20015;-86
2024/02/28 05:16:19;;;;;;;27.75;15.93;;;;;;;0.57;100.00;101343.88;6264330;22;20068;-85
2024/02/28 05:18:52;;;;;;;28.60;15.98;;;;;;;0.66;100.00;101336.53;6265315;22;20015;-86
2024/02/28 05:21:23;;;;;;;31.95;15.40;;;;;;;0.73;100.00;101348.88;6266064;22;20019;-86
2024/02/28 05:23:49;;;;;;;27.40;15.40;;;;;;;0.86;100.00;101346.81;6259737;22;20027;-85
2024/02/28 05:26:18;;;;;;;25.50;14.85;;;;;;;0.96;100.00;101347.25;6259391;22;20322;-85
2024/02/28 05:28:49;;;;;;;34.13;16.63;;;;;;;1.01;100.00;101344.88;6284563;22;20038;-87
2024/02/28 05:31:25;;;;;;;24.42;15.27;;;;;;;1.09;100.00;101353.78;6265773;22;20106;-88
2024/02/28 05:33:56;;;;;;;31.77;15.70;;;;;;;1.12;100.00;101353.03;6287058;22;20058;-87
2024/02/28 05:36:27;;;;;;;26.88;15.57;;;;;;;1.20;100.00;101351.66;6267375;22;20020;-86
2024/02/28 05:39:05;;;;;;;30.27;16.33;;;;;;;1.29;100.00;101366.59;6286379;22;20069;-86
2024/02/28 05:41:33;;;;;;;32.00;14.88;;;;;;;1.32;100.00;101357.31;6292473;22;20026;-86
2024/02/28 05:44:04;;;;;;;26.98;16.02;;;;;;;1.41;100.00;101359.38;6289962;22;20106;-86
2024/02/28 05:46:32;;;;;;;28.30;15.32;;;;;;;1.43;100.00;101364.59;6262055;22;20027;-84
2024/02/28 05:49:02;;;;;;;27.65;15.57;;;;;;;1.45;100.00;101363.84;6260414;22;20407;-85
2024/02/28 05:51:29;;;;;;;31.85;16.90;;;;;;;1.39;100.00;101366.16;6284872;22;20012;-85
2024/02/28 05:53:56;;;;;;;26.27;14.68;;;;;;;1.43;100.00;101372.34;6285242;22;20550;-85
2024/02/28 05:56:24;;;;;;;30.58;16.95;;;;;;;1.54;100.00;101375.34;6257612;22;20019;-84
2024/02/28 05:58:51;;;;;;;28.45;16.02;;;;;;;1.52;100.00;101385.59;6283230;22;20444;-85
2024/02/28 06:01:20;;;;;;;24.42;15.73;;;;;;;1.39;100.00;101383.34;6258529;22;20019;-86
2024/02/28 06:03:49;;;;;;;25.98;15.00;;;;;;;1.34;100.00;101375.41;6289056;22;20035;-86
2024/02/28 06:06:16;;;;;;;25.08;14.70;;;;;;;1.42;100.00;101383.47;6264223;22;20020;-86
2024/02/28 06:08:45;;;;;;;31.27;16.10;;;;;;;1.37;100.00;101374.66;6263385;22;20026;-86
2024/02/28 06:11:15;;;;;;;33.42;18.17;;;;;;;1.37;100.00;101388.47;6286319;22;20007;-83
2024/02/28 06:13:43;;;;;;;34.72;16.73;;;;;;;1.32;100.00;101374.50;6261337;22;20022;-84
2024/02/28 06:16:18;;;;;;;31.10;17.10;;;;;;;1.24;100.00;101378.44;6261123;22;20456;-85
2024/02/28 06:18:49;;;;;;;31.30;16.23;;;;;;;1.31;100.00;101381.34;6257059;22;20061;-84
2024/02/28 06:21:16;;;;;;;31.00;17.27;;;;;;;1.28;100.00;101385.50;6271466;22;20015;-85
2024/02/28 06:23:49;;;;;;;27.70;16.83;;;;;;;1.35;100.00;101381.47;6287803;22;20167;-86
2024/02/28 06:26:16;;;;;;;29.55;16.45;;;;;;;1.38;100.00;101379.88;6262927;22;20019;-85
2024/02/28 06:28:47;;;;;;;34.65;17.83;;;;;;;1.42;100.00;101393.78;6259857;22;20019;-86
2024/02/28 06:31:24;;;;;;;36.97;18.90;;;;;;;1.34;100.00;101387.44;6262099;22;20027;-85
2024/02/28 06:33:50;;;;;;;36.28;18.50;;;;;;;1.30;100.00;101389.00;6287960;22;20009;-85
2024/02/28 06:36:23;;;;;;;32.72;18.92;;;;;;;1.36;100.00;101384.13;6270230;22;20046;-85
2024/02/28 06:38:51;;;;;;;34.10;17.67;;;;;;;1.40;100.00;101383.41;6265087;22;20046;-84
2024/02/28 06:41:21;;;;;;;31.05;18.10;;;;;;;1.52;100.00;101397.63;6290316;22;20018;-86
2024/02/28 06:43:49;;;;;;;33.00;17.15;;;;;;;1.63;100.00;101396.34;6267492;22;20015;-85
2024/02/28 06:46:19;;;;;;;36.85;21.08;;;;;;;1.70;100.00;101400.06;6270091;22;20410;-85
2024/02/28 06:48:46;;;;;;;40.63;20.33;;;;;;;1.68;100.00;101401.69;6263988;22;20087;-85
2024/02/28 06:51:14;;;;;;;31.65;17.23;;;;;;;1.68;100.00;101399.97;6289885;22;20008;-84
2024/02/28 06:53:41;;;;;;;32.97;17.80;;;;;;;1.68;100.00;101404.28;6263429;22;20050;-87
2024/02/28 06:56:08;;;;;;;35.33;18.33;;;;;;;1.67;100.00;101393.09;6288561;22;20003;-87
2024/02/28 06:58:43;;;;;;;33.92;18.08;;;;;;;1.67;100.00;101398.25;6263520;22;20019;-86
2024/02/28 07:01:13;;;;;;;38.58;18.98;;;;;;;1.69;100.00;101394.00;6263876;22;20027;-86
2024/02/28 07:03:48;;;;;;;37.17;18.63;;;;;;;1.81;100.00;101407.41;6238543;22;20015;-85
2024/02/28 07:06:17;;;;;;;;;;;;;;;1.79;100.00;101403.88;6290216;22;20042;-84
2024/02/28 07:08:47;;;;;;;34.50;18.63;;;;;;;1.89;100.00;101410.28;6284799;22;19969;-84
2024/02/28 07:11:22;;;;;;;39.60;19.88;;;;;;;1.80;100.00;101412.50;6283776;22;20011;-85
2024/02/28 07:14:01;;;;;;;35.83;20.27;;;;;;;1.85;100.00;101412.69;6235419;22;20011;-84
2024/02/28 07:16:32;;;;;;;36.72;20.02;;;;;;;1.81;100.00;101422.00;6233152;22;20027;-84
2024/02/28 07:19:03;;;;;;;41.00;20.77;;;;;;;1.96;100.00;101416.56;6285091;22;20026;-83
2024/02/28 07:21:32;;;;;;;34.10;20.30;;;;;;;2.06;100.00;101420.38;6259900;22;20030;-84
2024/02/28 07:23:59;;;;;;;33.97;18.48;;;;;;;2.20;100.00;101421.75;6311908;22;20081;-84
2024/02/28 07:26:27;;;;;;;35.50;18.98;;;;;;;2.18;100.00;101425.13;6257803;22;20080;-85
2024/02/28 07:28:54;;;;;;;36.22;19.80;;;;;;;2.30;100.00;101434.22;6257198;22;20023;-84
2024/02/28 07:31:22;;;;;;;38.50;20.15;;;;;;;2.14;100.00;101424.13;6255511;22;20020;-83
2024/02/28 07:33:52;;;;;;;39.55;19.77;;;;;;;2.20;100.00;101426.94;6281150;22;20019;-83
2024/02/28 07:36:19;;;;;;;40.03;21.50;;;;;;;2.33;100.00;101430.00;6277154;22;20026;-83
2024/02/28 07:38:48;;;;;;;39.38;21.02;;;;;;;2.46;100.00;101433.09;6251958;22;20026;-84
2024/02/28 07:41:15;;;;;;;40.30;19.55;;;;;;;2.43;100.00;101424.34;6277604;22;20019;-83
2024/02/28 07:43:46;;;;;;;37.15;19.48;;;;;;;2.51;100.00;101430.66;6252184;22;20045;-83
2024/02/28 07:46:12;;;;;;;36.22;20.48;;;;;;;2.53;100.00;101429.03;6250595;22;20029;-82
2024/02/28 07:48:43;;;;;;;36.50;19.38;;;;;;;2.62;100.00;101433.63;6277629;22;20045;-81
2024/02/28 07:51:11;;;;;;;36.83;20.77;;;;;;;2.59;100.00;101433.53;6252790;22;20030;-82
2024/02/28 07:53:38;;;;;;;35.33;20.88;;;;;;;2.59;100.00;101436.09;6242927;22;20028;-84
2024/02/28 07:56:04;;;;;;;43.90;22.70;;;;;;;2.61;100.00;101443.09;6222905;22;20445;-83
2024/02/28 07:58:31;;;;;;;43.75;21.17;;;;;;;2.68;100.00;101438.16;6223492;22;20019;-82
2024/02/28 08:00:58;;;;;;;38.10;22.23;;;;;;;2.86;100.00;101433.63;6250437;22;20024;-83
2024/02/28 08:03:24;;;;;;;42.88;22.65;;;;;;;2.97;100.00;101436.59;6223052;22;20576;-83
2024/02/28 08:05:51;;;;;;;47.42;23.30;;;;;;;2.92;100.00;101443.31;6224035;22;20031;-84
2024/02/28 08:08:24;;;;;;;45.85;22.63;;;;;;;3.06;100.00;101448.97;6221972;22;20485;-83
2024/02/28 08:10:54;;;;;;;46.83;24.55;;;;;;;3.06;100.00;101452.41;6221426;22;20412;-82
2024/02/28 08:13:23;;;;;;;51.08;24.08;;;;;;;2.95;100.00;101449.47;6248450;22;20026;-83
2024/02/28 08:15:54;;;;;;;36.55;19.75;;;;;;;3.14;100.00;101460.44;6268575;22;20057;-84
2024/02/28 08:18:30;;;;;;;37.90;20.83;;;;;;;3.35;100.00;101451.66;6271624;22;20031;-84
2024/02/28 08:20:58;;;;;;;41.03;20.90;;;;;;;3.63;100.00;101454.31;6245641;22;20019;-84
2024/02/28 08:23:26;;;;;;;39.90;21.65;;;;;;;3.64;100.00;101452.63;6245380;22;20039;-83
2024/02/28 08:25:53;;;;;;;42.03;20.73;;;;;;;3.58;100.00;101448.13;6246017;22;20085;-83
2024/02/28 08:28:20;;;;;;;37.13;18.95;;;;;;;4.01;100.00;101456.38;6246135;22;20023;-83
2024/02/28 08:30:47;;;;;;;38.83;20.58;;;;;;;4.21;100.00;101456.09;6251537;22;20012;-83
2024/02/28 08:33:15;;;;;;;43.25;22.30;;;;;;;4.44;100.00;101451.59;6222424;22;20035;-85
2024/02/28 08:35:42;;;;;;;33.75;18.67;;;;;;;4.42;100.00;101451.56;6245860;22;20055;-83
2024/02/28 08:38:09;;;;;;;37.53;20.30;;;;;;;4.47;100.00;101451.69;6219513;22;20019;-83
2024/02/28 08:40:41;;;;;;;38.72;19.13;;;;;;;4.63;100.00;101443.50;6221475;22;20090;-82
2024/02/28 08:43:10;;;;;;;36.60;20.70;;;;;;;4.71;100.00;101446.31;6227920;22;20465;-85
2024/02/28 08:45:38;;;;;;;36.78;20.33;;;;;;;4.68;100.00;101441.06;6220760;22;20034;-84
2024/02/28 08:48:08;;;;;;;37.72;20.40;;;;;;;4.75;100.00;101447.28;6225062;22;20023;-84
2024/02/28 08:50:37;;;;;;;43.97;21.65;;;;;;;4.67;100.00;101453.97;6222773;22;20019;-84
2024/02/28 08:53:11;;;;;;;37.92;21.00;;;;;;;4.62;100.00;101451.25;6198302;22;20027;-83
2024/02/28 08:55:38;;;;;;;40.38;22.33;;;;;;;4.63;100.00;101453.88;6220914;22;20077;-83
2024/02/28 08:58:05;;;;;;;42.67;21.65;;;;;;;4.61;100.00;101459.84;6221850;22;20098;-83
2024/02/28 09:00:37;;;;;;;44.63;23.33;;;;;;;4.63;100.00;101463.38;6246955;22;20050;-84
2024/02/28 09:03:06;;;;;;;45.10;22.52;;;;;;;4.78;100.00;101452.56;6220780;22;20026;-83
2024/02/28 09:05:34;;;;;;;39.28;20.50;;;;;;;4.86;100.00;101457.94;6220967;22;20020;-83
2024/02/28 09:08:07;;;;;;;45.88;22.25;;;;;;;4.99;100.00;101460.03;6246962;22;20023;-84
2024/02/28 09:10:36;;;;;;;36.05;21.10;;;;;;;5.06;100.00;101466.25;6194326;22;20027;-81
2024/02/28 09:13:03;;;;;;;42.17;21.05;;;;;;;4.90;100.00;101465.88;6221379;22;20020;-82
2024/02/28 09:15:30;;;;;;;38.90;21.02;;;;;;;4.82;100.00;101459.56;6247594;22;20024;-84
2024/02/28 09:17:57;;;;;;;41.80;19.73;;;;;;;4.87;100.00;101457.13;6222535;22;20026;-86
2024/02/28 09:20:23;;;;;;;38.35;19.83;;;;;;;5.14;100.00;101464.78;6222922;22;20506;-84
2024/02/28 09:22:50;;;;;;;43.20;20.58;;;;;;;5.23;100.00;101464.16;6248592;22;20030;-84
2024/02/28 09:25:21;;;;;;;38.50;21.20;;;;;;;5.26;100.00;101464.22;6250373;22;20782;-85
2024/02/28 09:27:49;;;;;;;42.58;21.20;;;;;;;5.23;100.00;101470.19;6224103;22;20085;-86
2024/02/28 09:30:19;;;;;;;44.00;22.35;;;;;;;5.53;100.00;101466.63;6225121;22;20027;-86
2024/02/28 09:32:53;;;;;;;36.10;18.83;;;;;;;5.75;100.00;101459.34;6223024;22;20015;-86
2024/02/28 09:35:22;;;;;;;38.83;20.88;;;;;;;5.57;100.00;101460.66;6225470;22;20019;-85
2024/02/28 09:37:49;;;;;;;37.03;18.90;;;;;;;5.60;100.00;101465.06;6248251;22;20045;-85
2024/02/28 09:40:16;;;;;;;35.47;17.50;;;;;;;5.75;100.00;101457.66;6249611;22;20020;-86
2024/02/28 09:42:43;;;;;;;36.35;19.45;;;;;;;5.60;100.00;101470.25;6223890;22;20099;-86
2024/02/28 09:45:13;;;;;;;38.38;19.60;;;;;;;5.83;100.00;101468.22;6221498;22;20020;-85
2024/02/28 09:47:42;;;;;;;30.30;17.45;;;;;;;5.71;100.00;101480.91;6222666;22;20050;-85
2024/02/28 09:50:19;;;;;;;36.92;19.23;;;;;;;5.80;100.00;101481.13;6221790;22;20019;-83
2024/02/28 09:52:46;;;;;;;36.38;18.17;;;;;;;5.80;99.89;101481.13;6222203;22;20020;-86
2024/02/28 09:55:16;;;;;;;40.40;19.95;;;;;;;6.03;100.00;101476.50;6221513;22;20016;-86
2024/02/28 09:57:44;;;;;;;32.95;17.15;;;;;;;6.26;97.88;101479.63;6221432;22;20020;-83
2024/02/28 10:00:11;;;;;;;33.20;18.98;;;;;;;6.20;96.45;101489.88;6222692;22;20085;-85
2024/02/28 10:02:42;;;;;;;35.60;19.10;;;;;;;6.08;97.63;101487.88;6250436;22;20069;-85
2024/02/28 10:05:12;;;;;;;31.10;17.83;;;;;;;6.08;98.74;101490.47;6199260;22;20035;-85
2024/02/28 10:07:39;;;;;;;33.03;19.48;;;;;;;6.25;97.48;101496.06;6222115;22;20103;-84
2024/02/28 10:10:09;;;;;;;31.40;18.40;;;;;;;6.66;95.45;101497.78;6220664;22;20037;-82
2024/02/28 10:12:37;;;;;;;35.70;19.20;;;;;;;6.85;94.68;101490.38;6220936;22;20357;-83
2024/02/28 10:15:05;;;;;;;37.35;19.40;;;;;;;6.75;93.45;101502.31;6220726;22;20019;-83
2024/02/28 10:17:31;;;;;;;32.63;18.65;;;;;;;6.42;95.35;101503.38;6219809;22;20038;-82
2024/02/28 10:20:00;;;;;;;28.65;18.02;;;;;;;6.05;97.78;101502.53;6221818;22;20031;-83
2024/02/28 10:22:26;;;;;;;33.70;18.52;;;;;;;5.95;99.32;101509.22;6220619;22;20012;-84
2024/02/28 10:24:59;;;;;;;37.55;20.10;;;;;;;6.05;99.07;101515.50;6220927;22;20016;-82
2024/02/28 10:27:26;;;;;;;33.65;18.90;;;;;;;5.89;99.44;101512.53;6219265;22;20469;-84
2024/02/28 10:29:52;;;;;;;35.83;20.27;;;;;;;6.21;98.77;101515.03;6246195;22;20047;-82
2024/02/28 10:32:23;;;;;;;33.42;19.08;;;;;;;6.03;98.14;101525.03;6220779;22;20564;-84
2024/02/28 10:34:52;;;;;;;39.92;19.73;;;;;;;5.97;99.29;101518.78;6221458;22;20046;-81
2024/02/28 10:37:22;;;;;;;35.22;19.13;;;;;;;5.92;100.00;101523.00;6221533;22;20020;-82
2024/02/28 10:39:51;;;;;;;44.88;21.10;;;;;;;5.93;100.00;101519.56;6247604;22;20015;-81
2024/02/28 10:42:18;;;;;;;36.92;19.65;;;;;;;6.04;100.00;101524.19;6223350;22;20026;-83
2024/02/28 10:44:45;;;;;;;37.00;20.25;;;;;;;5.99;100.00;101521.47;6196853;22;20098;-80
2024/02/28 10:47:12;;;;;;;35.92;20.33;;;;;;;6.16;100.00;101521.84;6222166;22;20102;-83
2024/02/28 10:49:39;;;;;;;41.30;23.02;;;;;;;6.46;100.00;101520.78;6220211;22;20024;-83
2024/02/28 10:52:13;;;;;;;43.47;21.83;;;;;;;6.75;97.67;101518.81;6220964;22;20132;-83
2024/02/28 10:54:42;;;;;;;42.10;21.42;;;;;;;6.74;96.93;101516.16;6221843;22;20062;-82
2024/02/28 10:57:13;;;;;;;42.85;23.13;;;;;;;6.82;96.73;101511.13;6223271;22;20024;-83
2024/02/28 10:59:47;;;;;;;40.97;23.30;;;;;;;6.85;96.05;101512.06;6245905;22;20012;-82
2024/02/28 11:02:13;;;;;;;;;;;;;;;6.99;94.68;101507.16;6220770;22;20066;-83
2024/02/28 11:04:44;;;;;;;44.33;21.80;;;;;;;7.19;93.61;101510.13;6249401;22;20236;-83
2024/02/28 11:07:21;;;;;;;39.70;20.23;;;;;;;7.22;92.08;101512.78;6224430;22;20019;-82
2024/02/28 11:09:48;;;;;;;42.17;22.20;;;;;;;7.25;91.72;101510.25;6220441;22;20027;-83
2024/02/28 11:12:29;;;;;;;43.53;21.67;;;;;;;7.13;91.68;101515.19;6220170;22;20020;-82
2024/02/28 11:15:06;;;;;;;43.20;23.95;;;;;;;7.14;92.95;101508.28;6223723;22;20051;-82
2024/02/28 11:17:34;;;;;;;39.55;21.98;;;;;;;7.10;91.51;101505.63;6222659;22;20030;-82
2024/02/28 11:20:13;;;;;;;39.75;20.77;;;;;;;7.24;89.69;101503.28;6222185;22;20063;-82